sensor_id;sensor_type;location;lat;lon;timestamp;P1;durP1;ratioP1;P2;durP2;ratioP2
17251;SDS011;8742;51.716;8.790;2024-03-02T00:00:48;12.03;;;7.93;;
17251;SDS011;8742;51.716;8.790;2024-03-02T00:03:16;12.27;;;7.93;;
17251;SDS011;8742;51.716;8.790;2024-03-02T00:05:46;12.20;;;7.40;;
17251;SDS011;8742;51.716;8.790;2024-03-02T00:08:16;12.63;;;6.83;;
17251;SDS011;8742;51.716;8.790;2024-03-02T00:10:49;12.23;;;7.67;;
17251;SDS011;8742;51.716;8.790;2024-03-02T00:13:16;11.17;;;7.30;;
17251;SDS011;8742;51.716;8.790;2024-03-02T00:15:47;11.97;;;7.77;;
17251;SDS011;8742;51.716;8.790;2024-03-02T00:18:18;12.83;;;8.00;;
17251;SDS011;8742;51.716;8.790;2024-03-02T00:20:47;13.40;;;7.70;;
17251;SDS011;8742;51.716;8.790;2024-03-02T00:23:15;13.13;;;8.30;;
17251;SDS011;8742;51.716;8.790;2024-03-02T00:25:43;12.37;;;8.07;;
17251;SDS011;8742;51.716;8.790;2024-03-02T00:28:13;12.03;;;8.13;;
17251;SDS011;8742;51.716;8.790;2024-03-02T00:30:52;13.43;;;8.43;;
17251;SDS011;8742;51.716;8.790;2024-03-02T00:33:22;14.17;;;7.70;;
17251;SDS011;8742;51.716;8.790;2024-03-02T00:35:51;14.60;;;8.33;;
17251;SDS011;8742;51.716;8.790;2024-03-02T00:38:18;13.87;;;8.03;;
17251;SDS011;8742;51.716;8.790;2024-03-02T00:40:45;14.47;;;8.40;;
17251;SDS011;8742;51.716;8.790;2024-03-02T00:43:20;12.30;;;8.43;;
17251;SDS011;8742;51.716;8.790;2024-03-02T00:46:13;14.00;;;8.57;;
17251;SDS011;8742;51.716;8.790;2024-03-02T00:48:45;15.13;;;8.20;;
17251;SDS011;8742;51.716;8.790;2024-03-02T00:51:22;12.63;;;8.50;;
17251;SDS011;8742;51.716;8.790;2024-03-02T00:53:49;14.47;;;8.60;;
17251;SDS011;8742;51.716;8.790;2024-03-02T00:56:17;17.23;;;8.50;;
17251;SDS011;8742;51.716;8.790;2024-03-02T00:58:45;12.63;;;8.27;;
17251;SDS011;8742;51.716;8.790;2024-03-02T01:01:12;14.47;;;8.07;;
17251;SDS011;8742;51.716;8.790;2024-03-02T01:03:39;12.07;;;7.97;;
17251;SDS011;8742;51.716;8.790;2024-03-02T01:06:07;14.40;;;8.57;;
17251;SDS011;8742;51.716;8.790;2024-03-02T01:08:35;13.53;;;8.53;;
17251;SDS011;8742;51.716;8.790;2024-03-02T01:11:02;14.40;;;7.83;;
17251;SDS011;8742;51.716;8.790;2024-03-02T01:13:30;14.00;;;9.23;;
17251;SDS011;8742;51.716;8.790;2024-03-02T01:15:57;14.00;;;8.10;;
17251;SDS011;8742;51.716;8.790;2024-03-02T01:18:24;14.43;;;8.77;;
17251;SDS011;8742;51.716;8.790;2024-03-02T01:20:51;15.57;;;8.27;;
17251;SDS011;8742;51.716;8.790;2024-03-02T01:23:20;15.50;;;8.30;;
17251;SDS011;8742;51.716;8.790;2024-03-02T01:25:49;13.60;;;8.27;;
17251;SDS011;8742;51.716;8.790;2024-03-02T01:28:16;13.53;;;7.87;;
17251;SDS011;8742;51.716;8.790;2024-03-02T01:30:43;14.07;;;8.87;;
17251;SDS011;8742;51.716;8.790;2024-03-02T01:33:10;16.10;;;9.63;;
17251;SDS011;8742;51.716;8.790;2024-03-02T01:35:37;14.20;;;9.17;;
17251;SDS011;8742;51.716;8.790;2024-03-02T01:38:04;12.57;;;8.70;;
17251;SDS011;8742;51.716;8.790;2024-03-02T01:40:32;17.30;;;9.23;;
17251;SDS011;8742;51.716;8.790;2024-03-02T01:43:01;15.83;;;9.23;;
17251;SDS011;8742;51.716;8.790;2024-03-02T01:45:28;16.17;;;9.60;;
17251;SDS011;8742;51.716;8.790;2024-03-02T01:47:55;15.70;;;9.70;;
17251;SDS011;8742;51.716;8.790;2024-03-02T01:50:27;16.03;;;9.53;;
17251;SDS011;8742;51.716;8.790;2024-03-02T01:52:55;18.53;;;10.17;;
17251;SDS011;8742;51.716;8.790;2024-03-02T01:55:22;17.27;;;10.20;;
17251;SDS011;8742;51.716;8.790;2024-03-02T01:57:49;14.97;;;9.30;;
17251;SDS011;8742;51.716;8.790;2024-03-02T02:00:19;16.57;;;10.17;;
17251;SDS011;8742;51.716;8.790;2024-03-02T02:02:46;20.90;;;10.20;;
17251;SDS011;8742;51.716;8.790;2024-03-02T02:05:14;18.13;;;10.23;;
17251;SDS011;8742;51.716;8.790;2024-03-02T02:07:41;14.43;;;9.83;;
17251;SDS011;8742;51.716;8.790;2024-03-02T02:10:08;17.80;;;10.23;;
17251;SDS011;8742;51.716;8.790;2024-03-02T02:12:35;18.07;;;10.27;;
17251;SDS011;8742;51.716;8.790;2024-03-02T02:15:03;17.23;;;10.57;;
17251;SDS011;8742;51.716;8.790;2024-03-02T02:17:32;15.77;;;9.50;;
17251;SDS011;8742;51.716;8.790;2024-03-02T02:19:58;15.53;;;9.30;;
17251;SDS011;8742;51.716;8.790;2024-03-02T02:22:27;18.33;;;10.13;;
17251;SDS011;8742;51.716;8.790;2024-03-02T02:24:53;17.97;;;10.57;;
17251;SDS011;8742;51.716;8.790;2024-03-02T02:27:20;18.60;;;11.43;;
17251;SDS011;8742;51.716;8.790;2024-03-02T02:29:47;19.77;;;10.10;;
17251;SDS011;8742;51.716;8.790;2024-03-02T02:32:14;18.93;;;10.70;;
17251;SDS011;8742;51.716;8.790;2024-03-02T02:34:40;19.37;;;11.23;;
17251;SDS011;8742;51.716;8.790;2024-03-02T02:37:07;19.67;;;11.73;;
17251;SDS011;8742;51.716;8.790;2024-03-02T02:39:36;20.10;;;11.97;;
17251;SDS011;8742;51.716;8.790;2024-03-02T02:42:02;20.37;;;11.80;;
17251;SDS011;8742;51.716;8.790;2024-03-02T02:44:29;23.17;;;11.57;;
17251;SDS011;8742;51.716;8.790;2024-03-02T02:46:56;18.07;;;11.17;;
17251;SDS011;8742;51.716;8.790;2024-03-02T02:49:23;19.00;;;10.67;;
17251;SDS011;8742;51.716;8.790;2024-03-02T02:51:50;20.67;;;11.77;;
17251;SDS011;8742;51.716;8.790;2024-03-02T02:54:17;22.90;;;12.33;;
17251;SDS011;8742;51.716;8.790;2024-03-02T02:56:45;21.30;;;11.73;;
17251;SDS011;8742;51.716;8.790;2024-03-02T02:59:12;21.17;;;12.40;;
17251;SDS011;8742;51.716;8.790;2024-03-02T03:01:38;18.90;;;11.97;;
17251;SDS011;8742;51.716;8.790;2024-03-02T03:04:05;21.93;;;12.30;;
17251;SDS011;8742;51.716;8.790;2024-03-02T03:06:32;21.23;;;12.40;;
17251;SDS011;8742;51.716;8.790;2024-03-02T03:08:59;21.77;;;11.87;;
17251;SDS011;8742;51.716;8.790;2024-03-02T03:11:26;21.87;;;11.93;;
17251;SDS011;8742;51.716;8.790;2024-03-02T03:13:54;23.67;;;12.20;;
17251;SDS011;8742;51.716;8.790;2024-03-02T03:16:21;19.17;;;12.20;;
17251;SDS011;8742;51.716;8.790;2024-03-02T03:18:48;18.83;;;11.90;;
17251;SDS011;8742;51.716;8.790;2024-03-02T03:21:16;21.13;;;12.87;;
17251;SDS011;8742;51.716;8.790;2024-03-02T03:23:43;22.30;;;12.53;;
17251;SDS011;8742;51.716;8.790;2024-03-02T03:26:10;26.37;;;12.77;;
17251;SDS011;8742;51.716;8.790;2024-03-02T03:28:37;25.27;;;12.80;;
17251;SDS011;8742;51.716;8.790;2024-03-02T03:31:05;21.50;;;12.10;;
17251;SDS011;8742;51.716;8.790;2024-03-02T03:33:32;21.20;;;11.10;;
17251;SDS011;8742;51.716;8.790;2024-03-02T03:35:59;24.40;;;13.87;;
17251;SDS011;8742;51.716;8.790;2024-03-02T03:38:27;23.10;;;12.73;;
17251;SDS011;8742;51.716;8.790;2024-03-02T03:43:28;25.50;;;13.07;;
17251;SDS011;8742;51.716;8.790;2024-03-02T03:45:55;23.67;;;12.10;;
17251;SDS011;8742;51.716;8.790;2024-03-02T03:48:23;20.23;;;10.43;;
17251;SDS011;8742;51.716;8.790;2024-03-02T03:50:55;23.47;;;13.13;;
17251;SDS011;8742;51.716;8.790;2024-03-02T03:53:22;22.57;;;12.40;;
17251;SDS011;8742;51.716;8.790;2024-03-02T03:55:49;20.53;;;11.83;;
17251;SDS011;8742;51.716;8.790;2024-03-02T03:58:16;16.37;;;8.60;;
17251;SDS011;8742;51.716;8.790;2024-03-02T04:00:43;21.27;;;11.10;;
17251;SDS011;8742;51.716;8.790;2024-03-02T04:03:10;23.67;;;12.30;;
17251;SDS011;8742;51.716;8.790;2024-03-02T04:05:39;20.53;;;11.90;;
17251;SDS011;8742;51.716;8.790;2024-03-02T04:08:06;20.67;;;10.50;;
17251;SDS011;8742;51.716;8.790;2024-03-02T04:10:33;24.87;;;11.97;;
17251;SDS011;8742;51.716;8.790;2024-03-02T04:13:00;21.97;;;11.00;;
17251;SDS011;8742;51.716;8.790;2024-03-02T04:15:27;17.43;;;9.87;;
17251;SDS011;8742;51.716;8.790;2024-03-02T04:17:53;18.77;;;11.50;;
17251;SDS011;8742;51.716;8.790;2024-03-02T04:20:21;23.43;;;12.83;;
17251;SDS011;8742;51.716;8.790;2024-03-02T04:22:49;25.33;;;12.37;;
17251;SDS011;8742;51.716;8.790;2024-03-02T04:25:16;25.43;;;12.83;;
17251;SDS011;8742;51.716;8.790;2024-03-02T04:27:43;21.90;;;12.10;;
17251;SDS011;8742;51.716;8.790;2024-03-02T04:30:10;21.87;;;12.80;;
17251;SDS011;8742;51.716;8.790;2024-03-02T04:32:37;22.87;;;12.00;;
17251;SDS011;8742;51.716;8.790;2024-03-02T04:35:04;26.97;;;12.90;;
17251;SDS011;8742;51.716;8.790;2024-03-02T04:37:34;20.90;;;11.43;;
17251;SDS011;8742;51.716;8.790;2024-03-02T04:40:02;21.20;;;12.23;;
17251;SDS011;8742;51.716;8.790;2024-03-02T04:42:33;19.27;;;9.43;;
17251;SDS011;8742;51.716;8.790;2024-03-02T04:44:59;26.23;;;11.93;;
17251;SDS011;8742;51.716;8.790;2024-03-02T04:47:26;23.33;;;13.20;;
17251;SDS011;8742;51.716;8.790;2024-03-02T04:49:53;20.17;;;10.57;;
17251;SDS011;8742;51.716;8.790;2024-03-02T04:52:20;22.30;;;11.00;;
17251;SDS011;8742;51.716;8.790;2024-03-02T04:54:47;25.63;;;12.73;;
17251;SDS011;8742;51.716;8.790;2024-03-02T04:57:32;21.00;;;12.33;;
17251;SDS011;8742;51.716;8.790;2024-03-02T04:59:59;23.53;;;12.73;;
17251;SDS011;8742;51.716;8.790;2024-03-02T05:02:26;23.13;;;12.63;;
17251;SDS011;8742;51.716;8.790;2024-03-02T05:04:53;26.90;;;11.53;;
17251;SDS011;8742;51.716;8.790;2024-03-02T05:07:19;22.83;;;12.03;;
17251;SDS011;8742;51.716;8.790;2024-03-02T05:09:46;20.27;;;11.77;;
17251;SDS011;8742;51.716;8.790;2024-03-02T05:12:13;26.20;;;13.43;;
17251;SDS011;8742;51.716;8.790;2024-03-02T05:15:14;21.27;;;11.93;;
17251;SDS011;8742;51.716;8.790;2024-03-02T05:17:41;23.17;;;11.33;;
17251;SDS011;8742;51.716;8.790;2024-03-02T05:20:09;15.60;;;7.20;;
17251;SDS011;8742;51.716;8.790;2024-03-02T05:22:36;27.60;;;13.63;;
17251;SDS011;8742;51.716;8.790;2024-03-02T05:25:04;23.17;;;12.17;;
17251;SDS011;8742;51.716;8.790;2024-03-02T05:27:32;27.97;;;14.40;;
17251;SDS011;8742;51.716;8.790;2024-03-02T05:29:59;25.10;;;13.43;;
17251;SDS011;8742;51.716;8.790;2024-03-02T05:32:28;23.00;;;12.67;;
17251;SDS011;8742;51.716;8.790;2024-03-02T05:34:55;26.33;;;12.63;;
17251;SDS011;8742;51.716;8.790;2024-03-02T05:37:21;27.40;;;13.83;;
17251;SDS011;8742;51.716;8.790;2024-03-02T05:39:48;23.87;;;11.20;;
17251;SDS011;8742;51.716;8.790;2024-03-02T05:42:15;17.63;;;9.63;;
17251;SDS011;8742;51.716;8.790;2024-03-02T05:44:43;24.93;;;12.83;;
17251;SDS011;8742;51.716;8.790;2024-03-02T05:47:10;23.10;;;13.40;;
17251;SDS011;8742;51.716;8.790;2024-03-02T05:49:38;27.50;;;13.60;;
17251;SDS011;8742;51.716;8.790;2024-03-02T05:52:05;27.67;;;14.40;;
17251;SDS011;8742;51.716;8.790;2024-03-02T05:54:33;28.37;;;14.80;;
17251;SDS011;8742;51.716;8.790;2024-03-02T05:57:00;29.37;;;13.97;;
17251;SDS011;8742;51.716;8.790;2024-03-02T05:59:42;32.27;;;14.60;;
17251;SDS011;8742;51.716;8.790;2024-03-02T06:02:09;24.97;;;12.00;;
17251;SDS011;8742;51.716;8.790;2024-03-02T06:04:35;29.17;;;13.93;;
17251;SDS011;8742;51.716;8.790;2024-03-02T06:07:04;30.07;;;14.93;;
17251;SDS011;8742;51.716;8.790;2024-03-02T06:09:30;26.27;;;13.23;;
17251;SDS011;8742;51.716;8.790;2024-03-02T06:11:57;34.70;;;14.60;;
17251;SDS011;8742;51.716;8.790;2024-03-02T06:14:24;29.73;;;14.37;;
17251;SDS011;8742;51.716;8.790;2024-03-02T06:16:51;29.83;;;13.67;;
17251;SDS011;8742;51.716;8.790;2024-03-02T06:19:17;30.03;;;14.43;;
17251;SDS011;8742;51.716;8.790;2024-03-02T06:21:44;27.90;;;14.47;;
17251;SDS011;8742;51.716;8.790;2024-03-02T06:24:12;25.00;;;13.40;;
17251;SDS011;8742;51.716;8.790;2024-03-02T06:26:39;21.73;;;13.30;;
17251;SDS011;8742;51.716;8.790;2024-03-02T06:29:06;25.37;;;11.93;;
17251;SDS011;8742;51.716;8.790;2024-03-02T06:31:33;28.73;;;14.97;;
17251;SDS011;8742;51.716;8.790;2024-03-02T06:34:00;29.47;;;14.97;;
17251;SDS011;8742;51.716;8.790;2024-03-02T06:36:28;25.70;;;13.57;;
17251;SDS011;8742;51.716;8.790;2024-03-02T06:38:55;24.47;;;11.93;;
17251;SDS011;8742;51.716;8.790;2024-03-02T06:41:23;29.13;;;14.07;;
17251;SDS011;8742;51.716;8.790;2024-03-02T06:43:51;27.50;;;13.90;;
17251;SDS011;8742;51.716;8.790;2024-03-02T06:46:24;32.13;;;14.43;;
17251;SDS011;8742;51.716;8.790;2024-03-02T06:48:51;27.53;;;13.90;;
17251;SDS011;8742;51.716;8.790;2024-03-02T06:51:18;29.67;;;15.67;;
17251;SDS011;8742;51.716;8.790;2024-03-02T06:53:44;28.33;;;14.60;;
17251;SDS011;8742;51.716;8.790;2024-03-02T06:56:11;30.27;;;15.20;;
17251;SDS011;8742;51.716;8.790;2024-03-02T06:58:40;28.17;;;14.03;;
17251;SDS011;8742;51.716;8.790;2024-03-02T07:01:08;27.97;;;14.57;;
17251;SDS011;8742;51.716;8.790;2024-03-02T07:03:35;25.73;;;13.13;;
17251;SDS011;8742;51.716;8.790;2024-03-02T07:06:01;26.03;;;14.50;;
17251;SDS011;8742;51.716;8.790;2024-03-02T07:08:29;28.13;;;13.10;;
17251;SDS011;8742;51.716;8.790;2024-03-02T07:10:55;30.73;;;15.90;;
17251;SDS011;8742;51.716;8.790;2024-03-02T07:13:23;22.10;;;11.20;;
17251;SDS011;8742;51.716;8.790;2024-03-02T07:15:51;24.70;;;12.90;;
17251;SDS011;8742;51.716;8.790;2024-03-02T07:18:45;26.27;;;13.77;;
17251;SDS011;8742;51.716;8.790;2024-03-02T07:21:16;24.17;;;10.20;;
17251;SDS011;8742;51.716;8.790;2024-03-02T07:23:43;28.13;;;14.20;;
17251;SDS011;8742;51.716;8.790;2024-03-02T07:26:10;22.30;;;10.60;;
17251;SDS011;8742;51.716;8.790;2024-03-02T07:28:37;26.60;;;14.07;;
17251;SDS011;8742;51.716;8.790;2024-03-02T07:31:05;26.30;;;13.03;;
17251;SDS011;8742;51.716;8.790;2024-03-02T07:33:32;24.93;;;12.27;;
17251;SDS011;8742;51.716;8.790;2024-03-02T07:36:07;28.43;;;12.83;;
17251;SDS011;8742;51.716;8.790;2024-03-02T07:38:34;25.10;;;13.17;;
17251;SDS011;8742;51.716;8.790;2024-03-02T07:41:01;30.23;;;16.33;;
17251;SDS011;8742;51.716;8.790;2024-03-02T07:43:29;29.73;;;14.10;;
17251;SDS011;8742;51.716;8.790;2024-03-02T07:45:58;26.77;;;13.60;;
17251;SDS011;8742;51.716;8.790;2024-03-02T07:48:27;29.57;;;12.53;;
17251;SDS011;8742;51.716;8.790;2024-03-02T07:50:55;28.83;;;14.30;;
17251;SDS011;8742;51.716;8.790;2024-03-02T07:53:22;25.30;;;14.60;;
17251;SDS011;8742;51.716;8.790;2024-03-02T07:55:49;28.10;;;14.47;;
17251;SDS011;8742;51.716;8.790;2024-03-02T07:58:19;28.50;;;14.77;;
17251;SDS011;8742;51.716;8.790;2024-03-02T08:00:46;27.67;;;13.20;;
17251;SDS011;8742;51.716;8.790;2024-03-02T08:03:13;26.30;;;14.90;;
17251;SDS011;8742;51.716;8.790;2024-03-02T08:05:42;29.10;;;13.40;;
17251;SDS011;8742;51.716;8.790;2024-03-02T08:08:10;28.43;;;14.03;;
17251;SDS011;8742;51.716;8.790;2024-03-02T08:10:37;27.63;;;12.73;;
17251;SDS011;8742;51.716;8.790;2024-03-02T08:13:03;30.13;;;15.27;;
17251;SDS011;8742;51.716;8.790;2024-03-02T08:15:30;32.00;;;14.47;;
17251;SDS011;8742;51.716;8.790;2024-03-02T08:17:57;27.70;;;13.87;;
17251;SDS011;8742;51.716;8.790;2024-03-02T08:20:27;28.33;;;15.13;;
17251;SDS011;8742;51.716;8.790;2024-03-02T08:22:55;28.83;;;14.30;;
17251;SDS011;8742;51.716;8.790;2024-03-02T08:25:22;26.43;;;14.17;;
17251;SDS011;8742;51.716;8.790;2024-03-02T08:27:49;29.87;;;15.87;;
17251;SDS011;8742;51.716;8.790;2024-03-02T08:30:16;24.37;;;12.40;;
17251;SDS011;8742;51.716;8.790;2024-03-02T08:32:43;25.20;;;13.33;;
17251;SDS011;8742;51.716;8.790;2024-03-02T08:35:12;26.77;;;14.37;;
17251;SDS011;8742;51.716;8.790;2024-03-02T08:37:39;21.67;;;12.10;;
17251;SDS011;8742;51.716;8.790;2024-03-02T08:40:09;21.77;;;11.47;;
17251;SDS011;8742;51.716;8.790;2024-03-02T08:42:36;24.40;;;13.63;;
17251;SDS011;8742;51.716;8.790;2024-03-02T08:45:03;24.90;;;12.17;;
17251;SDS011;8742;51.716;8.790;2024-03-02T08:47:31;23.67;;;12.60;;
17251;SDS011;8742;51.716;8.790;2024-03-02T08:49:59;19.73;;;11.83;;
17251;SDS011;8742;51.716;8.790;2024-03-02T08:52:25;18.80;;;12.10;;
17251;SDS011;8742;51.716;8.790;2024-03-02T08:54:53;19.77;;;11.17;;
17251;SDS011;8742;51.716;8.790;2024-03-02T08:57:21;23.70;;;13.47;;
17251;SDS011;8742;51.716;8.790;2024-03-02T08:59:48;19.07;;;11.93;;
17251;SDS011;8742;51.716;8.790;2024-03-02T09:02:14;21.70;;;11.97;;
17251;SDS011;8742;51.716;8.790;2024-03-02T09:04:41;19.07;;;10.33;;
17251;SDS011;8742;51.716;8.790;2024-03-02T09:07:08;18.60;;;10.60;;
17251;SDS011;8742;51.716;8.790;2024-03-02T09:09:35;16.30;;;8.73;;
17251;SDS011;8742;51.716;8.790;2024-03-02T09:12:03;22.43;;;10.73;;
17251;SDS011;8742;51.716;8.790;2024-03-02T09:14:32;21.57;;;11.20;;
17251;SDS011;8742;51.716;8.790;2024-03-02T09:16:59;20.30;;;10.87;;
17251;SDS011;8742;51.716;8.790;2024-03-02T09:19:26;19.03;;;10.47;;
17251;SDS011;8742;51.716;8.790;2024-03-02T09:21:53;16.20;;;8.73;;
17251;SDS011;8742;51.716;8.790;2024-03-02T09:24:20;15.83;;;8.83;;
17251;SDS011;8742;51.716;8.790;2024-03-02T09:26:47;16.30;;;9.80;;
17251;SDS011;8742;51.716;8.790;2024-03-02T09:29:14;19.07;;;10.73;;
17251;SDS011;8742;51.716;8.790;2024-03-02T09:31:42;18.90;;;9.97;;
17251;SDS011;8742;51.716;8.790;2024-03-02T09:34:09;17.23;;;9.20;;
17251;SDS011;8742;51.716;8.790;2024-03-02T09:36:36;14.60;;;9.30;;
17251;SDS011;8742;51.716;8.790;2024-03-02T09:39:03;14.17;;;8.43;;
17251;SDS011;8742;51.716;8.790;2024-03-02T09:41:31;15.00;;;9.93;;
17251;SDS011;8742;51.716;8.790;2024-03-02T09:43:59;13.97;;;9.60;;
17251;SDS011;8742;51.716;8.790;2024-03-02T09:46:26;18.60;;;10.03;;
17251;SDS011;8742;51.716;8.790;2024-03-02T09:48:55;13.80;;;8.93;;
17251;SDS011;8742;51.716;8.790;2024-03-02T09:51:22;12.70;;;8.20;;
17251;SDS011;8742;51.716;8.790;2024-03-02T09:53:49;13.47;;;8.63;;
17251;SDS011;8742;51.716;8.790;2024-03-02T09:56:18;13.97;;;9.33;;
17251;SDS011;8742;51.716;8.790;2024-03-02T09:58:45;14.23;;;8.67;;
17251;SDS011;8742;51.716;8.790;2024-03-02T10:01:11;12.93;;;8.50;;
17251;SDS011;8742;51.716;8.790;2024-03-02T10:03:38;10.53;;;6.43;;
17251;SDS011;8742;51.716;8.790;2024-03-02T10:06:19;10.93;;;6.83;;
17251;SDS011;8742;51.716;8.790;2024-03-02T10:08:47;12.53;;;7.77;;
17251;SDS011;8742;51.716;8.790;2024-03-02T10:11:25;12.60;;;6.80;;
17251;SDS011;8742;51.716;8.790;2024-03-02T10:14:03;10.73;;;7.90;;
17251;SDS011;8742;51.716;8.790;2024-03-02T10:16:33;13.27;;;7.97;;
17251;SDS011;8742;51.716;8.790;2024-03-02T10:19:13;11.93;;;7.37;;
17251;SDS011;8742;51.716;8.790;2024-03-02T10:21:43;15.00;;;7.73;;
17251;SDS011;8742;51.716;8.790;2024-03-02T10:24:10;10.43;;;6.87;;
17251;SDS011;8742;51.716;8.790;2024-03-02T10:26:37;11.00;;;7.30;;
17251;SDS011;8742;51.716;8.790;2024-03-02T10:29:04;11.40;;;7.13;;
17251;SDS011;8742;51.716;8.790;2024-03-02T10:31:31;8.93;;;5.97;;
17251;SDS011;8742;51.716;8.790;2024-03-02T10:33:58;11.87;;;7.60;;
17251;SDS011;8742;51.716;8.790;2024-03-02T10:36:27;10.60;;;7.23;;
17251;SDS011;8742;51.716;8.790;2024-03-02T10:38:58;12.67;;;7.47;;
17251;SDS011;8742;51.716;8.790;2024-03-02T10:41:29;11.83;;;7.53;;
17251;SDS011;8742;51.716;8.790;2024-03-02T10:43:59;11.63;;;6.97;;
17251;SDS011;8742;51.716;8.790;2024-03-02T10:46:29;9.57;;;6.50;;
17251;SDS011;8742;51.716;8.790;2024-03-02T10:48:56;8.77;;;6.53;;
17251;SDS011;8742;51.716;8.790;2024-03-02T10:51:24;8.27;;;6.30;;
17251;SDS011;8742;51.716;8.790;2024-03-02T10:53:52;9.67;;;6.80;;
17251;SDS011;8742;51.716;8.790;2024-03-02T10:56:27;10.47;;;6.10;;
17251;SDS011;8742;51.716;8.790;2024-03-02T10:58:56;9.43;;;6.30;;
17251;SDS011;8742;51.716;8.790;2024-03-02T11:01:29;10.27;;;6.90;;
17251;SDS011;8742;51.716;8.790;2024-03-02T11:03:58;7.40;;;6.03;;
17251;SDS011;8742;51.716;8.790;2024-03-02T11:06:28;8.77;;;6.10;;
17251;SDS011;8742;51.716;8.790;2024-03-02T11:08:58;8.37;;;5.73;;
17251;SDS011;8742;51.716;8.790;2024-03-02T11:11:36;9.07;;;5.30;;
17251;SDS011;8742;51.716;8.790;2024-03-02T11:14:07;9.00;;;5.60;;
17251;SDS011;8742;51.716;8.790;2024-03-02T11:16:39;8.00;;;5.47;;
17251;SDS011;8742;51.716;8.790;2024-03-02T11:19:08;8.90;;;5.50;;
17251;SDS011;8742;51.716;8.790;2024-03-02T11:21:37;7.27;;;5.27;;
17251;SDS011;8742;51.716;8.790;2024-03-02T11:26:59;7.40;;;4.83;;
17251;SDS011;8742;51.716;8.790;2024-03-02T11:32:21;10.50;;;5.77;;
17251;SDS011;8742;51.716;8.790;2024-03-02T11:34:49;6.77;;;5.20;;
17251;SDS011;8742;51.716;8.790;2024-03-02T11:37:17;6.73;;;4.97;;
17251;SDS011;8742;51.716;8.790;2024-03-02T11:39:45;7.33;;;5.03;;
17251;SDS011;8742;51.716;8.790;2024-03-02T11:42:14;8.03;;;5.80;;
17251;SDS011;8742;51.716;8.790;2024-03-02T11:44:42;6.50;;;4.53;;
17251;SDS011;8742;51.716;8.790;2024-03-02T11:47:11;8.13;;;4.60;;
17251;SDS011;8742;51.716;8.790;2024-03-02T11:49:41;9.47;;;5.90;;
17251;SDS011;8742;51.716;8.790;2024-03-02T11:52:10;6.67;;;5.17;;
17251;SDS011;8742;51.716;8.790;2024-03-02T11:54:39;8.03;;;5.63;;
17251;SDS011;8742;51.716;8.790;2024-03-02T11:57:11;8.57;;;4.73;;
17251;SDS011;8742;51.716;8.790;2024-03-02T11:59:40;8.90;;;5.10;;
17251;SDS011;8742;51.716;8.790;2024-03-02T12:02:12;5.63;;;4.17;;
17251;SDS011;8742;51.716;8.790;2024-03-02T12:04:41;5.33;;;4.13;;
17251;SDS011;8742;51.716;8.790;2024-03-02T12:07:10;7.00;;;3.97;;
17251;SDS011;8742;51.716;8.790;2024-03-02T12:09:37;6.53;;;4.90;;
17251;SDS011;8742;51.716;8.790;2024-03-02T12:12:04;7.13;;;4.13;;
17251;SDS011;8742;51.716;8.790;2024-03-02T12:14:33;5.77;;;4.60;;
17251;SDS011;8742;51.716;8.790;2024-03-02T12:17:01;6.40;;;3.93;;
17251;SDS011;8742;51.716;8.790;2024-03-02T12:19:29;6.13;;;4.47;;
17251;SDS011;8742;51.716;8.790;2024-03-02T12:21:56;5.07;;;4.00;;
17251;SDS011;8742;51.716;8.790;2024-03-02T12:24:24;7.60;;;4.10;;
17251;SDS011;8742;51.716;8.790;2024-03-02T12:26:53;5.67;;;4.33;;
17251;SDS011;8742;51.716;8.790;2024-03-02T12:29:20;5.90;;;4.30;;
17251;SDS011;8742;51.716;8.790;2024-03-02T12:31:50;4.33;;;3.50;;
17251;SDS011;8742;51.716;8.790;2024-03-02T12:34:18;4.63;;;4.10;;
17251;SDS011;8742;51.716;8.790;2024-03-02T12:36:46;7.77;;;4.20;;
17251;SDS011;8742;51.716;8.790;2024-03-02T12:39:14;5.97;;;3.87;;
17251;SDS011;8742;51.716;8.790;2024-03-02T12:41:42;5.60;;;3.30;;
17251;SDS011;8742;51.716;8.790;2024-03-02T12:44:09;4.40;;;3.40;;
17251;SDS011;8742;51.716;8.790;2024-03-02T12:46:36;3.60;;;3.30;;
17251;SDS011;8742;51.716;8.790;2024-03-02T12:49:12;4.07;;;3.30;;
17251;SDS011;8742;51.716;8.790;2024-03-02T12:51:41;3.60;;;2.97;;
17251;SDS011;8742;51.716;8.790;2024-03-02T12:54:08;3.27;;;3.00;;
17251;SDS011;8742;51.716;8.790;2024-03-02T12:56:35;3.83;;;3.10;;
17251;SDS011;8742;51.716;8.790;2024-03-02T12:59:02;3.13;;;2.83;;
17251;SDS011;8742;51.716;8.790;2024-03-02T13:01:29;3.07;;;2.77;;
17251;SDS011;8742;51.716;8.790;2024-03-02T13:03:57;3.70;;;3.17;;
17251;SDS011;8742;51.716;8.790;2024-03-02T13:06:26;3.55;;;2.78;;
17251;SDS011;8742;51.716;8.790;2024-03-02T13:08:54;3.33;;;2.80;;
17251;SDS011;8742;51.716;8.790;2024-03-02T13:11:21;5.25;;;2.95;;
17251;SDS011;8742;51.716;8.790;2024-03-02T13:13:50;3.55;;;2.85;;
17251;SDS011;8742;51.716;8.790;2024-03-02T13:16:17;3.05;;;2.70;;
17251;SDS011;8742;51.716;8.790;2024-03-02T13:18:45;2.90;;;2.42;;
17251;SDS011;8742;51.716;8.790;2024-03-02T13:21:12;4.68;;;2.88;;
17251;SDS011;8742;51.716;8.790;2024-03-02T13:23:41;3.33;;;2.80;;
17251;SDS011;8742;51.716;8.790;2024-03-02T13:26:07;2.42;;;2.25;;
17251;SDS011;8742;51.716;8.790;2024-03-02T13:28:36;3.88;;;2.65;;
17251;SDS011;8742;51.716;8.790;2024-03-02T13:31:04;5.07;;;2.80;;
17251;SDS011;8742;51.716;8.790;2024-03-02T13:33:31;2.72;;;2.53;;
17251;SDS011;8742;51.716;8.790;2024-03-02T13:35:58;4.03;;;2.80;;
17251;SDS011;8742;51.716;8.790;2024-03-02T13:38:26;2.63;;;2.40;;
17251;SDS011;8742;51.716;8.790;2024-03-02T13:40:54;2.60;;;2.40;;
17251;SDS011;8742;51.716;8.790;2024-03-02T13:43:21;4.60;;;2.40;;
17251;SDS011;8742;51.716;8.790;2024-03-02T13:45:49;4.70;;;2.30;;
17251;SDS011;8742;51.716;8.790;2024-03-02T13:48:17;2.55;;;2.35;;
17251;SDS011;8742;51.716;8.790;2024-03-02T13:50:44;3.10;;;2.67;;
17251;SDS011;8742;51.716;8.790;2024-03-02T13:53:11;3.03;;;2.60;;
17251;SDS011;8742;51.716;8.790;2024-03-02T13:55:38;3.13;;;2.63;;
17251;SDS011;8742;51.716;8.790;2024-03-02T13:58:08;3.38;;;2.65;;
17251;SDS011;8742;51.716;8.790;2024-03-02T14:00:35;2.35;;;2.17;;
17251;SDS011;8742;51.716;8.790;2024-03-02T14:03:02;4.53;;;2.10;;
17251;SDS011;8742;51.716;8.790;2024-03-02T14:05:30;2.97;;;2.40;;
17251;SDS011;8742;51.716;8.790;2024-03-02T14:07:57;2.22;;;2.03;;
17251;SDS011;8742;51.716;8.790;2024-03-02T14:10:25;2.20;;;2.00;;
17251;SDS011;8742;51.716;8.790;2024-03-02T14:12:54;2.20;;;2.00;;
17251;SDS011;8742;51.716;8.790;2024-03-02T14:15:22;2.17;;;1.73;;
17251;SDS011;8742;51.716;8.790;2024-03-02T14:17:49;1.67;;;1.58;;
17251;SDS011;8742;51.716;8.790;2024-03-02T14:20:16;3.88;;;1.80;;
17251;SDS011;8742;51.716;8.790;2024-03-02T14:22:47;2.08;;;1.88;;
17251;SDS011;8742;51.716;8.790;2024-03-02T14:25:14;3.20;;;1.80;;
17251;SDS011;8742;51.716;8.790;2024-03-02T14:27:41;1.65;;;1.55;;
17251;SDS011;8742;51.716;8.790;2024-03-02T14:30:08;1.63;;;1.52;;
17251;SDS011;8742;51.716;8.790;2024-03-02T14:32:37;1.98;;;1.88;;
17251;SDS011;8742;51.716;8.790;2024-03-02T14:35:04;2.15;;;2.00;;
17251;SDS011;8742;51.716;8.790;2024-03-02T14:37:34;2.08;;;1.98;;
17251;SDS011;8742;51.716;8.790;2024-03-02T14:40:01;3.13;;;2.83;;
17251;SDS011;8742;51.716;8.790;2024-03-02T14:42:31;4.05;;;3.42;;
17251;SDS011;8742;51.716;8.790;2024-03-02T14:44:58;8.07;;;3.70;;
17251;SDS011;8742;51.716;8.790;2024-03-02T14:47:25;5.32;;;3.80;;
17251;SDS011;8742;51.716;8.790;2024-03-02T14:49:53;6.53;;;3.92;;
17251;SDS011;8742;51.716;8.790;2024-03-02T14:52:20;4.68;;;4.10;;
17251;SDS011;8742;51.716;8.790;2024-03-02T14:54:47;4.38;;;3.95;;
17251;SDS011;8742;51.716;8.790;2024-03-02T14:57:14;5.47;;;4.30;;
17251;SDS011;8742;51.716;8.790;2024-03-02T14:59:40;5.45;;;3.38;;